createdAt,value
2023-04-17T00:01:44.095Z,10.50
2023-04-17T00:04:13.084Z,12.25
2023-04-17T00:06:43.540Z,11.25
2023-04-17T00:09:12.080Z,12.43
2023-04-17T00:11:39.542Z,13.55
2023-04-17T00:14:06.724Z,13.40
2023-04-17T00:16:33.701Z,12.90
2023-04-17T00:19:00.596Z,10.40
2023-04-17T00:21:29.843Z,9.50
2023-04-17T00:23:56.998Z,9.95
2023-04-17T00:26:24.386Z,9.95
2023-04-17T00:28:51.927Z,9.32
2023-04-17T00:31:19.105Z,10.48
2023-04-17T00:33:46.467Z,13.77
2023-04-17T00:36:13.894Z,13.13
2023-04-17T00:38:41.352Z,14.50
2023-04-17T00:41:08.286Z,15.77
2023-04-17T00:43:35.345Z,14.40
2023-04-17T00:46:03.594Z,15.60
2023-04-17T00:48:30.979Z,14.75
2023-04-17T00:51:02.229Z,14.32
2023-04-17T00:53:31.751Z,12.43
2023-04-17T00:56:06.533Z,12.68
2023-04-17T00:58:35.940Z,13.70
2023-04-17T01:01:04.309Z,12.07
2023-04-17T01:03:33.337Z,13.30
2023-04-17T01:06:00.463Z,21.13
2023-04-17T01:08:27.950Z,15.60
2023-04-17T01:10:55.088Z,15.07
2023-04-17T01:13:22.058Z,14.25
2023-04-17T01:15:48.992Z,15.82
2023-04-17T01:18:16.502Z,14.73
2023-04-17T01:20:43.487Z,14.30
2023-04-17T01:23:11.535Z,14.98
2023-04-17T01:25:38.566Z,14.68
2023-04-17T01:28:05.614Z,16.98
2023-04-17T01:30:32.688Z,14.93
2023-04-17T01:32:59.621Z,14.30
2023-04-17T01:35:26.578Z,16.73
2023-04-17T01:37:53.464Z,19.05
2023-04-17T01:40:20.546Z,17.25
2023-04-17T01:42:47.490Z,16.35
2023-04-17T01:45:14.388Z,14.43
2023-04-17T01:47:41.455Z,14.35
2023-04-17T01:50:11.524Z,15.35
2023-04-17T01:52:39.860Z,15.90
2023-04-17T01:55:07.418Z,17.45
2023-04-17T01:57:34.342Z,15.20
2023-04-17T02:00:01.203Z,15.00
2023-04-17T02:02:28.171Z,13.50
2023-04-17T02:04:55.190Z,15.68
2023-04-17T02:07:22.049Z,14.88
2023-04-17T02:09:48.972Z,29.08
2023-04-17T02:12:16.319Z,27.42
2023-04-17T02:14:43.284Z,17.65
2023-04-17T02:17:10.277Z,19.15
2023-04-17T02:19:37.150Z,13.98
2023-04-17T02:22:04.286Z,14.15
2023-04-17T02:24:31.785Z,13.85
2023-04-17T02:26:58.666Z,16.60
2023-04-17T02:29:25.522Z,19.60
2023-04-17T02:31:52.446Z,21.27
2023-04-17T02:34:19.333Z,22.48
2023-04-17T02:36:46.210Z,24.80
2023-04-17T02:39:13.280Z,26.75
2023-04-17T02:41:40.311Z,25.65
2023-04-17T02:44:07.153Z,25.45
2023-04-17T02:46:34.095Z,27.73
2023-04-17T02:49:00.970Z,21.75
2023-04-17T02:51:27.904Z,20.65
2023-04-17T02:53:54.806Z,25.95
2023-04-17T02:56:21.663Z,26.17
2023-04-17T02:58:48.540Z,28.40
2023-04-17T03:01:15.516Z,28.30
2023-04-17T03:03:43.064Z,26.77
2023-04-17T03:06:10.309Z,28.10
2023-04-17T03:08:38.381Z,29.58
2023-04-17T03:11:06.578Z,25.10
2023-04-17T03:13:36.965Z,24.95
2023-04-17T03:16:05.094Z,25.63
2023-04-17T03:18:32.450Z,20.77
2023-04-17T03:20:59.385Z,23.50
2023-04-17T03:23:26.435Z,20.48
2023-04-17T03:25:53.586Z,23.45
2023-04-17T03:28:21.977Z,22.65
2023-04-17T03:30:49.437Z,22.80
2023-04-17T03:33:17.210Z,24.35
2023-04-17T03:35:46.526Z,21.50
2023-04-17T03:38:13.456Z,20.58
2023-04-17T03:40:40.773Z,23.55
2023-04-17T03:43:07.871Z,23.92
2023-04-17T03:45:35.008Z,20.00
2023-04-17T03:48:02.366Z,17.50
2023-04-17T03:50:29.351Z,18.50
2023-04-17T03:52:59.016Z,19.38
2023-04-17T03:55:26.000Z,19.45
2023-04-17T03:57:52.900Z,19.55
2023-04-17T04:00:21.787Z,19.13
2023-04-17T04:02:49.336Z,17.23
2023-04-17T04:05:16.548Z,19.02
2023-04-17T04:07:43.528Z,28.60
2023-04-17T04:10:11.150Z,22.30
2023-04-17T04:12:37.987Z,26.67
2023-04-17T04:15:05.782Z,29.38
2023-04-17T04:17:32.763Z,23.50
2023-04-17T04:19:59.942Z,25.77
2023-04-17T04:22:29.148Z,26.58
2023-04-17T04:24:56.219Z,20.65
2023-04-17T04:27:23.124Z,26.33
2023-04-17T04:29:50.273Z,22.98
2023-04-17T04:32:17.336Z,24.52
2023-04-17T04:34:44.743Z,32.50
2023-04-17T04:37:15.646Z,25.77
2023-04-17T04:39:43.254Z,34.92
2023-04-17T04:42:10.412Z,28.63
2023-04-17T04:44:37.487Z,27.55
2023-04-17T04:47:04.597Z,26.70
2023-04-17T04:49:31.490Z,26.60
2023-04-17T04:51:58.400Z,25.05
2023-04-17T04:54:25.504Z,21.63
2023-04-17T04:56:52.383Z,23.52
2023-04-17T04:59:19.247Z,20.52
2023-04-17T05:01:46.436Z,16.60
2023-04-17T05:04:13.412Z,18.63
2023-04-17T05:06:41.017Z,16.83
2023-04-17T05:09:07.994Z,18.58
2023-04-17T05:11:35.097Z,15.88
2023-04-17T05:14:04.380Z,13.00
2023-04-17T05:16:31.337Z,18.60
2023-04-17T05:18:58.291Z,15.05
2023-04-17T05:21:25.811Z,16.60
2023-04-17T05:23:52.735Z,15.52
2023-04-17T05:26:22.201Z,14.52
2023-04-17T05:28:49.167Z,23.30
2023-04-17T05:31:16.861Z,17.00
2023-04-17T05:33:43.879Z,16.25
2023-04-17T05:36:10.861Z,15.98
2023-04-17T05:38:37.862Z,18.42
2023-04-17T05:41:07.503Z,22.52
2023-04-17T05:43:34.910Z,20.92
2023-04-17T05:46:02.596Z,18.15
2023-04-17T05:48:30.159Z,15.25
2023-04-17T05:50:57.298Z,17.23
2023-04-17T05:53:24.240Z,16.67
2023-04-17T05:55:51.114Z,16.70
2023-04-17T05:58:23.552Z,16.98
2023-04-17T06:00:52.788Z,16.35
2023-04-17T06:03:21.053Z,14.07
2023-04-17T06:05:48.403Z,16.58
2023-04-17T06:08:15.586Z,16.15
2023-04-17T06:10:45.692Z,13.15
2023-04-17T06:13:12.846Z,13.60
2023-04-17T06:15:39.711Z,17.55
2023-04-17T06:18:06.776Z,14.10
2023-04-17T06:20:33.734Z,14.88
2023-04-17T06:23:01.303Z,12.82
2023-04-17T06:25:28.208Z,13.68
2023-04-17T06:27:55.160Z,13.57
2023-04-17T06:30:22.057Z,11.70
2023-04-17T06:32:48.932Z,11.25
2023-04-17T06:35:16.164Z,11.93
2023-04-17T06:37:43.150Z,10.82
2023-04-17T06:40:12.399Z,11.55
2023-04-17T06:42:39.347Z,11.23
2023-04-17T06:45:07.087Z,10.40
2023-04-17T06:47:34.042Z,11.80
2023-04-17T06:50:00.903Z,11.65
2023-04-17T06:52:27.801Z,11.10
2023-04-17T06:54:56.053Z,10.38
2023-04-17T06:57:22.993Z,15.63
2023-04-17T06:59:49.889Z,13.30
2023-04-17T07:02:17.430Z,10.25
2023-04-17T07:04:44.545Z,12.15
2023-04-17T07:07:11.937Z,13.57
2023-04-17T07:09:39.084Z,12.02
2023-04-17T07:12:06.076Z,13.43
2023-04-17T07:14:33.603Z,12.60
2023-04-17T07:17:00.633Z,12.32
2023-04-17T07:19:27.511Z,11.15
2023-04-17T07:21:54.433Z,12.00
2023-04-17T07:24:21.385Z,12.10
2023-04-17T07:26:49.533Z,13.57
2023-04-17T07:29:16.770Z,12.68
2023-04-17T07:31:44.373Z,12.63
2023-04-17T07:34:11.443Z,10.50
2023-04-17T07:36:38.386Z,10.68
2023-04-17T07:39:06.515Z,11.57
2023-04-17T07:41:33.501Z,11.80
2023-04-17T07:44:03.289Z,12.13
2023-04-17T07:46:30.432Z,10.18
2023-04-17T07:48:57.668Z,10.82
2023-04-17T07:51:24.692Z,12.57
2023-04-17T07:53:51.694Z,18.73
2023-04-17T07:56:18.588Z,11.30
2023-04-17T07:58:45.470Z,11.35
2023-04-17T08:01:12.934Z,12.10
2023-04-17T08:03:41.873Z,12.65
2023-04-17T08:06:09.064Z,10.70
2023-04-17T08:08:36.287Z,10.65
2023-04-17T08:11:03.878Z,11.75
2023-04-17T08:13:32.243Z,11.43
2023-04-17T08:15:59.628Z,11.30
2023-04-17T08:18:26.545Z,12.10
2023-04-17T08:20:53.831Z,12.20
2023-04-17T08:23:21.086Z,11.02
2023-04-17T08:25:48.151Z,13.25
2023-04-17T08:28:15.073Z,10.95
2023-04-17T08:30:42.181Z,10.75
2023-04-17T08:33:09.079Z,12.20
2023-04-17T08:35:35.971Z,11.40
2023-04-17T08:38:02.877Z,13.38
2023-04-17T08:40:30.005Z,12.55
2023-04-17T08:42:58.517Z,13.70
2023-04-17T08:45:25.740Z,13.93
2023-04-17T08:47:52.768Z,12.18
2023-04-17T08:50:22.005Z,10.63
2023-04-17T08:52:51.367Z,11.40
2023-04-17T08:55:25.447Z,11.80
2023-04-17T08:58:04.611Z,10.65
2023-04-17T09:00:38.595Z,9.93
2023-04-17T09:03:13.275Z,10.63
2023-04-17T09:05:43.763Z,13.57
2023-04-17T09:08:24.089Z,12.10
2023-04-17T09:10:55.884Z,11.55
2023-04-17T09:13:25.389Z,13.65
2023-04-17T09:16:06.200Z,13.73
2023-04-17T09:18:34.775Z,9.70
2023-04-17T09:21:04.722Z,11.25
2023-04-17T09:23:55.473Z,10.80
2023-04-17T09:26:24.777Z,11.55
2023-04-17T09:29:12.075Z,11.98
2023-04-17T09:31:43.659Z,11.40
2023-04-17T09:34:12.863Z,14.20
2023-04-17T09:36:43.632Z,13.77
2023-04-17T09:39:20.702Z,10.60
2023-04-17T09:41:48.036Z,10.85
2023-04-17T09:44:30.150Z,12.32
2023-04-17T09:46:58.854Z,9.20
2023-04-17T09:49:44.875Z,9.68
2023-04-17T09:52:13.291Z,10.95
2023-04-17T09:54:41.985Z,11.05
2023-04-17T09:57:10.977Z,9.40
2023-04-17T09:59:45.193Z,10.20
2023-04-17T10:02:14.774Z,9.27
2023-04-17T10:04:46.432Z,8.95
2023-04-17T10:07:14.475Z,9.38
2023-04-17T10:09:45.537Z,10.80
2023-04-17T10:12:18.684Z,10.10
2023-04-17T10:17:37.113Z,8.90
2023-04-17T10:20:19.989Z,11.13
2023-04-17T10:22:56.028Z,12.18
2023-04-17T10:25:25.298Z,17.73
2023-04-17T10:28:02.456Z,12.38
2023-04-17T10:31:04.749Z,13.70
2023-04-17T10:33:31.667Z,11.52
2023-04-17T10:35:58.557Z,11.10
2023-04-17T10:38:34.272Z,12.65
2023-04-17T10:41:04.214Z,11.75
2023-04-17T10:43:35.074Z,10.30
2023-04-17T10:46:05.501Z,9.23
2023-04-17T10:48:47.039Z,9.70
2023-04-17T10:51:23.068Z,15.73
2023-04-17T10:53:54.331Z,11.25
2023-04-17T10:56:47.303Z,11.13
2023-04-17T10:59:19.174Z,17.17
2023-04-17T11:01:48.974Z,25.75
2023-04-17T11:04:32.026Z,12.32
2023-04-17T11:07:01.080Z,9.70
2023-04-17T11:09:29.687Z,11.18
2023-04-17T11:12:01.816Z,8.82
2023-04-17T11:14:30.428Z,8.05
2023-04-17T11:16:57.754Z,9.63
2023-04-17T11:19:25.890Z,10.43
2023-04-17T11:21:58.476Z,11.82
2023-04-17T11:24:28.401Z,13.95
2023-04-17T11:27:01.940Z,14.82
2023-04-17T11:29:29.628Z,12.80
2023-04-17T11:31:58.759Z,14.60
2023-04-17T11:34:29.569Z,16.20
2023-04-17T11:37:00.235Z,20.38
2023-04-17T11:39:30.890Z,14.80
2023-04-17T11:41:58.527Z,15.43
2023-04-17T11:44:26.334Z,14.90
2023-04-17T11:46:56.566Z,12.35
2023-04-17T11:49:31.834Z,16.38
2023-04-17T11:52:04.419Z,14.15
2023-04-17T11:54:37.596Z,12.25
2023-04-17T11:59:34.091Z,11.27
2023-04-17T12:02:02.301Z,12.38
2023-04-17T12:04:33.452Z,13.10
2023-04-17T12:07:08.891Z,12.82
2023-04-17T12:09:36.625Z,11.75
2023-04-17T12:12:08.297Z,10.85
2023-04-17T12:14:35.378Z,14.35
2023-04-17T12:17:02.332Z,14.20
2023-04-17T12:19:31.615Z,13.82
2023-04-17T12:21:59.503Z,14.75
2023-04-17T12:24:26.593Z,14.73
2023-04-17T12:26:53.583Z,15.13
2023-04-17T12:29:32.218Z,13.73
2023-04-17T12:32:07.834Z,14.15
2023-04-17T12:34:34.940Z,12.60
2023-04-17T12:37:01.847Z,11.15
2023-04-17T12:39:28.845Z,11.68
2023-04-17T12:41:56.314Z,18.15
2023-04-17T12:44:23.253Z,14.55
2023-04-17T12:46:50.235Z,15.85
2023-04-17T12:49:17.150Z,12.55
2023-04-17T12:51:44.029Z,10.60
2023-04-17T12:54:11.318Z,11.63
2023-04-17T12:56:38.619Z,12.05
2023-04-17T12:59:05.537Z,12.38
2023-04-17T13:01:32.565Z,12.00
2023-04-17T13:03:59.696Z,11.48
2023-04-17T13:06:28.175Z,13.27
2023-04-17T13:08:55.271Z,12.15
2023-04-17T13:11:22.171Z,11.52
2023-04-17T13:13:49.144Z,12.55
2023-04-17T13:16:16.194Z,14.10
2023-04-17T13:18:43.514Z,12.30
2023-04-17T13:21:11.854Z,10.70
2023-04-17T13:23:38.750Z,11.32
2023-04-17T13:26:05.790Z,12.25
2023-04-17T13:28:32.806Z,13.38
2023-04-17T13:30:59.761Z,11.30
2023-04-17T13:33:26.715Z,14.88
2023-04-17T13:35:53.999Z,14.07
2023-04-17T13:38:20.916Z,13.43
2023-04-17T13:40:47.925Z,12.60
2023-04-17T13:43:14.779Z,14.25
2023-04-17T13:45:41.882Z,14.85
2023-04-17T13:48:09.005Z,16.27
2023-04-17T13:50:35.951Z,10.50
2023-04-17T13:53:03.016Z,13.23
2023-04-17T13:55:29.985Z,16.55
2023-04-17T13:57:57.686Z,13.38
2023-04-17T14:00:24.735Z,15.30
2023-04-17T14:02:51.783Z,12.90
2023-04-17T14:05:18.939Z,15.18
2023-04-17T14:07:45.852Z,12.25
2023-04-17T14:10:12.764Z,14.50
2023-04-17T14:12:39.622Z,12.80
2023-04-17T14:15:08.118Z,11.57
2023-04-17T14:17:38.107Z,17.52
2023-04-17T14:20:06.393Z,15.57
2023-04-17T14:22:33.318Z,12.57
2023-04-17T14:25:00.256Z,15.00
2023-04-17T14:27:27.368Z,13.30
2023-04-17T14:29:54.322Z,15.55
2023-04-17T14:32:21.315Z,11.57
2023-04-17T14:34:48.222Z,12.52
2023-04-17T14:37:15.422Z,12.45
2023-04-17T14:39:42.347Z,12.38
2023-04-17T14:42:09.305Z,11.45
2023-04-17T14:44:36.247Z,14.75
2023-04-17T14:47:03.287Z,14.27
2023-04-17T14:49:30.575Z,13.98
2023-04-17T14:51:57.480Z,18.20
2023-04-17T14:54:24.422Z,14.35
2023-04-17T14:56:53.512Z,11.90
2023-04-17T14:59:21.772Z,12.25
2023-04-17T15:01:48.876Z,11.30
2023-04-17T15:04:16.125Z,11.52
2023-04-17T15:06:43.325Z,12.55
2023-04-17T15:09:10.856Z,14.05
2023-04-17T15:11:39.783Z,13.77
2023-04-17T15:14:06.896Z,16.23
2023-04-17T15:16:34.039Z,12.60
2023-04-17T15:19:01.017Z,12.80
2023-04-17T15:21:27.936Z,14.82
2023-04-17T15:23:54.866Z,14.07
2023-04-17T15:26:21.799Z,13.63
2023-04-17T15:28:48.862Z,12.13
2023-04-17T15:31:15.885Z,14.38
2023-04-17T15:33:42.811Z,12.60
2023-04-17T15:36:09.892Z,15.60
2023-04-17T15:38:36.796Z,13.73
2023-04-17T15:41:04.168Z,14.38
2023-04-17T15:43:31.476Z,16.23
2023-04-17T15:45:59.838Z,16.00
2023-04-17T15:48:27.633Z,19.77
2023-04-17T15:50:54.557Z,17.15
2023-04-17T15:53:21.873Z,17.80
2023-04-17T15:55:49.064Z,21.30
2023-04-17T15:58:16.620Z,17.25
2023-04-17T16:00:43.614Z,15.82
2023-04-17T16:03:10.638Z,19.55
2023-04-17T16:05:37.648Z,21.38
2023-04-17T16:08:04.684Z,19.10
2023-04-17T16:10:31.559Z,20.10
2023-04-17T16:13:02.001Z,16.33
2023-04-17T16:15:29.070Z,16.90
2023-04-17T16:17:56.014Z,16.73
2023-04-17T16:20:23.234Z,15.00
2023-04-17T16:22:50.215Z,15.75
2023-04-17T16:25:18.626Z,21.13
2023-04-17T16:27:47.206Z,20.20
2023-04-17T16:30:14.250Z,19.70
2023-04-17T16:32:41.188Z,15.93
2023-04-17T16:35:11.122Z,19.25
2023-04-17T16:37:38.022Z,18.52
2023-04-17T16:40:05.875Z,30.45
2023-04-17T16:42:33.038Z,19.70
2023-04-17T16:45:03.205Z,18.10
2023-04-17T16:47:30.681Z,19.75
2023-04-17T16:49:57.688Z,19.73
2023-04-17T16:52:24.762Z,21.70
2023-04-17T16:54:51.724Z,25.75
2023-04-17T16:57:18.675Z,22.73
2023-04-17T16:59:47.290Z,24.17
2023-04-17T17:02:14.336Z,25.95
2023-04-17T17:04:44.896Z,23.10
2023-04-17T17:07:12.151Z,20.33
2023-04-17T17:09:39.102Z,20.15
2023-04-17T17:12:06.852Z,20.60
2023-04-17T17:14:33.952Z,18.20
2023-04-17T17:17:01.269Z,23.33
2023-04-17T17:19:28.434Z,20.95
2023-04-17T17:21:55.443Z,20.83
2023-04-17T17:24:22.465Z,20.13
2023-04-17T17:26:49.416Z,24.20
2023-04-17T17:29:16.486Z,23.27
2023-04-17T17:31:43.673Z,28.15
2023-04-17T17:34:25.130Z,24.35
2023-04-17T17:36:53.389Z,23.50
2023-04-17T17:39:22.019Z,26.35
2023-04-17T17:41:49.567Z,21.52
2023-04-17T17:44:16.565Z,24.25
2023-04-17T17:46:43.664Z,24.88
2023-04-17T17:49:10.849Z,22.48
2023-04-17T17:51:39.220Z,23.13
2023-04-17T17:54:08.516Z,26.13
2023-04-17T17:56:35.495Z,27.98
2023-04-17T17:59:04.659Z,24.15
2023-04-17T18:01:31.608Z,26.80
2023-04-17T18:03:58.840Z,24.75
2023-04-17T18:06:27.796Z,27.98
2023-04-17T18:08:54.762Z,33.53
2023-04-17T18:11:21.703Z,31.17
2023-04-17T18:13:48.600Z,25.52
2023-04-17T18:16:15.633Z,25.30
2023-04-17T18:18:42.598Z,28.15
2023-04-17T18:21:11.155Z,26.55
2023-04-17T18:23:38.134Z,29.92
2023-04-17T18:26:05.152Z,26.73
2023-04-17T18:28:33.207Z,33.45
2023-04-17T18:31:00.154Z,32.85
2023-04-17T18:33:28.786Z,30.58
2023-04-17T18:35:55.750Z,33.90
2023-04-17T18:38:22.747Z,40.67
2023-04-17T18:40:57.310Z,34.53
2023-04-17T18:43:24.260Z,26.40
2023-04-17T18:45:51.252Z,34.20
2023-04-17T18:48:18.322Z,27.92
2023-04-17T18:50:46.744Z,27.98
2023-04-17T18:53:13.656Z,24.55
2023-04-17T18:55:40.663Z,28.33
2023-04-17T18:58:07.554Z,28.13
2023-04-17T19:00:34.559Z,25.88
2023-04-17T19:03:01.549Z,31.13
2023-04-17T19:05:28.590Z,26.95
2023-04-17T19:07:55.743Z,25.10
2023-04-17T19:10:23.067Z,25.65
2023-04-17T19:12:50.447Z,42.72
2023-04-17T19:15:18.054Z,40.58
2023-04-17T19:17:45.101Z,51.17
2023-04-17T19:20:12.289Z,28.92
2023-04-17T19:22:39.225Z,30.33
2023-04-17T19:25:06.685Z,29.73
2023-04-17T19:27:33.641Z,24.83
2023-04-17T19:30:00.585Z,25.50
2023-04-17T19:32:28.284Z,25.88
2023-04-17T19:34:56.354Z,25.00
2023-04-17T19:37:23.306Z,23.17
2023-04-17T19:39:52.782Z,20.55
2023-04-17T19:42:23.071Z,20.90
2023-04-17T19:44:50.317Z,23.42
2023-04-17T19:47:17.219Z,25.23
2023-04-17T19:49:44.947Z,26.38
2023-04-17T19:52:12.324Z,27.17
2023-04-17T19:54:39.410Z,24.00
2023-04-17T19:57:06.479Z,37.47
2023-04-17T19:59:33.398Z,30.10
2023-04-17T20:02:00.361Z,36.55
2023-04-17T20:04:27.453Z,36.42
2023-04-17T20:06:54.584Z,28.90
2023-04-17T20:09:21.708Z,33.83
2023-04-17T20:11:48.642Z,30.05
2023-04-17T20:14:15.780Z,31.65
2023-04-17T20:16:45.223Z,35.28
2023-04-17T20:19:13.315Z,29.27
2023-04-17T20:21:40.648Z,49.42
2023-04-17T20:24:07.780Z,37.88
2023-04-17T20:26:37.141Z,37.38
2023-04-17T20:29:04.503Z,35.15
2023-04-17T20:31:33.937Z,31.02
2023-04-17T20:34:00.931Z,30.13
2023-04-17T20:36:28.224Z,28.83
2023-04-17T20:38:55.333Z,29.33
2023-04-17T20:41:22.389Z,27.77
2023-04-17T20:44:02.172Z,28.25
2023-04-17T20:46:29.805Z,30.73
2023-04-17T20:48:56.754Z,33.45
2023-04-17T20:51:26.372Z,28.10
2023-04-17T20:53:54.434Z,27.92
2023-04-17T20:56:22.114Z,30.40
2023-04-17T20:58:49.089Z,27.48
2023-04-17T21:01:16.852Z,25.67
2023-04-17T21:03:44.190Z,30.60
2023-04-17T21:06:11.303Z,24.88
2023-04-17T21:08:38.330Z,25.90
2023-04-17T21:11:05.400Z,24.65
2023-04-17T21:13:32.387Z,24.58
2023-04-17T21:15:59.332Z,27.33
2023-04-17T21:18:26.267Z,28.35
2023-04-17T21:20:53.213Z,27.98
2023-04-17T21:23:20.517Z,29.27
2023-04-17T21:25:50.472Z,28.13
2023-04-17T21:28:17.421Z,28.13
2023-04-17T21:30:44.343Z,24.33
2023-04-17T21:33:11.234Z,27.75
2023-04-17T21:35:39.180Z,27.67
2023-04-17T21:38:06.059Z,26.80
2023-04-17T21:40:33.673Z,27.98
2023-04-17T21:43:01.403Z,25.05
2023-04-17T21:45:28.398Z,21.95
2023-04-17T21:47:55.314Z,25.55
2023-04-17T21:50:22.402Z,26.40
2023-04-17T21:52:49.330Z,24.40
2023-04-17T21:55:16.247Z,26.63
2023-04-17T21:57:43.219Z,26.95
2023-04-17T22:00:12.530Z,24.27
2023-04-17T22:02:39.546Z,25.45
2023-04-17T22:05:06.857Z,24.17
2023-04-17T22:07:40.738Z,24.10
2023-04-17T22:10:11.327Z,24.83
2023-04-17T22:12:38.266Z,23.75
2023-04-17T22:15:05.998Z,25.08
2023-04-17T22:17:33.032Z,25.88
2023-04-17T22:19:59.983Z,20.08
2023-04-17T22:22:26.899Z,21.90
2023-04-17T22:24:53.832Z,21.67
2023-04-17T22:27:20.683Z,22.75
2023-04-17T22:29:47.622Z,21.98
2023-04-17T22:32:14.520Z,23.98
2023-04-17T22:34:42.530Z,20.80
2023-04-17T22:37:09.539Z,22.58
2023-04-17T22:39:36.420Z,21.52
2023-04-17T22:42:03.319Z,20.75
2023-04-17T22:44:30.275Z,20.77
2023-04-17T22:46:57.286Z,21.30
2023-04-17T22:49:24.353Z,22.20
2023-04-17T22:51:51.517Z,21.17
2023-04-17T22:54:22.641Z,21.73
2023-04-17T22:56:50.103Z,20.17
2023-04-17T22:59:16.955Z,21.50
2023-04-17T23:01:43.981Z,23.58
2023-04-17T23:04:11.009Z,21.10
2023-04-17T23:06:38.023Z,22.88
2023-04-17T23:09:05.148Z,20.00
2023-04-17T23:11:33.368Z,20.48
2023-04-17T23:14:02.763Z,22.70
2023-04-17T23:16:30.403Z,21.65
2023-04-17T23:18:57.349Z,25.95
2023-04-17T23:21:27.641Z,24.13
2023-04-17T23:23:56.066Z,23.40
2023-04-17T23:26:23.170Z,22.15
2023-04-17T23:28:50.023Z,21.15
2023-04-17T23:31:16.955Z,19.02
2023-04-17T23:33:43.861Z,20.63
2023-04-17T23:36:11.421Z,21.33
2023-04-17T23:38:38.387Z,22.23
2023-04-17T23:41:05.656Z,20.17
2023-04-17T23:43:32.518Z,23.60
2023-04-17T23:46:00.787Z,22.17
2023-04-17T23:48:28.177Z,21.73
2023-04-17T23:50:55.304Z,20.83
2023-04-17T23:53:22.210Z,25.52
2023-04-17T23:55:49.059Z,21.05
2023-04-17T23:58:16.005Z,24.48
